Time;durP1;ratioP1;P1;durP2;ratioP2;P2;SDS_P1;SDS_P2;PMS_P1;PMS_P2;Temp;Humidity;BMP_temperature;BMP_pressure;BME280_temperature;BME280_humidity;BME280_pressure;Samples;Min_cycle;Max_cycle;Signal;HPM_P1;HPM_P2
2021/10/28 00:14:36;;;;;;;8.30;6.03;;;;;;;10.70;79.95;100824.28;5081030;28;21002;-81
2021/10/28 00:17:10;;;;;;;9.13;6.17;;;;;;;10.78;79.59;100818.28;5066497;28;20479;-81
2021/10/28 00:19:37;;;;;;;11.80;7.60;;;;;;;10.73;79.62;100822.22;5074822;28;20452;-81
2021/10/28 00:22:06;;;;;;;9.23;7.20;;;;;;;10.66;79.18;100822.84;5060953;28;20507;-81
2021/10/28 00:24:32;;;;;;;7.77;6.77;;;;;;;10.65;79.66;100826.50;5063734;28;20452;-83
2021/10/28 00:26:59;;;;;;;7.70;6.30;;;;;;;10.55;80.24;100821.06;5061787;28;20472;-80
2021/10/28 00:29:26;;;;;;;12.57;6.67;;;;;;;10.40;80.38;100816.97;5070284;28;21531;-82
2021/10/28 00:31:55;;;;;;;10.67;6.63;;;;;;;10.41;80.48;100824.03;5066277;28;20553;-83
2021/10/28 00:34:22;;;;;;;10.17;7.20;;;;;;;10.40;80.85;100817.84;5062214;28;20505;-84
2021/10/28 00:36:50;;;;;;;9.20;6.87;;;;;;;10.51;81.00;100822.28;5074779;28;20483;-83
2021/10/28 00:39:18;;;;;;;10.47;7.40;;;;;;;10.55;80.53;100816.56;5081180;28;20460;-82
2021/10/28 00:41:45;;;;;;;9.87;7.20;;;;;;;10.53;80.54;100829.19;5069664;28;20576;-80
2021/10/28 00:44:12;;;;;;;8.17;7.23;;;;;;;10.49;80.63;100822.41;5062783;28;20460;-81
2021/10/28 00:46:40;;;;;;;9.00;7.50;;;;;;;10.48;80.54;100819.88;5061364;28;20509;-81
2021/10/28 00:49:09;;;;;;;15.23;6.80;;;;;;;10.49;80.33;100822.41;5075659;28;20440;-81
2021/10/28 00:51:36;;;;;;;10.20;6.43;;;;;;;10.38;79.72;100817.13;5071815;28;20481;-80
2021/10/28 00:54:03;;;;;;;9.47;7.00;;;;;;;10.36;80.50;100811.88;5061091;28;20539;-81
2021/10/28 00:56:32;;;;;;;8.90;6.43;;;;;;;10.33;80.64;100806.78;5068955;28;20490;-81
2021/10/28 00:59:00;;;;;;;7.70;6.10;;;;;;;10.41;80.98;100821.34;5080103;28;20464;-81
2021/10/28 01:01:27;;;;;;;12.43;7.27;;;;;;;10.34;80.88;100818.31;5061276;28;20504;-80
2021/10/28 01:03:54;;;;;;;9.63;7.40;;;;;;;10.35;81.09;100815.53;5062017;28;20436;-81
2021/10/28 01:06:21;;;;;;;12.93;8.43;;;;;;;10.35;80.78;100812.00;5078910;28;21082;-81
2021/10/28 01:08:48;;;;;;;12.70;7.50;;;;;;;10.27;81.00;100815.25;5071824;28;20453;-80
2021/10/28 01:11:15;;;;;;;10.47;6.60;;;;;;;10.28;81.07;100814.31;5061476;28;20511;-82
2021/10/28 01:13:44;;;;;;;11.60;7.27;;;;;;;10.35;81.75;100820.03;5067425;28;20504;-80
2021/10/28 01:16:11;;;;;;;9.53;6.87;;;;;;;10.35;81.35;100820.03;5079283;28;20507;-82
2021/10/28 01:18:39;;;;;;;12.60;7.50;;;;;;;10.34;81.27;100824.50;5081562;28;20498;-83
2021/10/28 01:21:08;;;;;;;8.57;7.20;;;;;;;10.37;80.88;100823.44;5069079;28;20993;-84
2021/10/28 01:23:36;;;;;;;8.10;7.10;;;;;;;10.27;80.62;100817.09;5061291;28;20477;-82
2021/10/28 01:26:05;;;;;;;8.40;6.80;;;;;;;10.14;80.33;100818.09;5071794;28;20535;-81
2021/10/28 01:28:33;;;;;;;10.13;7.20;;;;;;;10.10;80.70;100824.66;5070964;28;20456;-83
2021/10/28 01:31:02;;;;;;;10.37;6.77;;;;;;;10.08;80.93;100818.56;5061082;28;20468;-82
2021/10/28 01:33:30;;;;;;;9.30;6.77;;;;;;;10.09;80.64;100819.44;5071019;28;20558;-84
2021/10/28 01:35:57;;;;;;;8.07;6.80;;;;;;;10.05;80.80;100809.97;5081315;28;20480;-82
2021/10/28 01:38:25;;;;;;;11.23;7.60;;;;;;;9.97;81.19;100815.94;5062906;28;20461;-80
2021/10/28 01:40:56;;;;;;;11.13;7.23;;;;;;;9.86;80.80;100824.81;5060826;28;20854;-83
2021/10/28 01:43:23;;;;;;;9.80;6.10;;;;;;;9.75;79.96;100822.13;5074329;28;20444;-83
2021/10/28 01:45:50;;;;;;;8.93;6.67;;;;;;;9.65;79.82;100818.47;5074688;28;20495;-81
2021/10/28 01:48:18;;;;;;;6.40;5.80;;;;;;;9.54;79.64;100817.50;5077934;28;20455;-83
2021/10/28 01:50:45;;;;;;;5.57;4.97;;;;;;;9.48;79.61;100812.66;5070306;28;20486;-83
2021/10/28 01:53:12;;;;;;;7.10;5.80;;;;;;;9.37;79.52;100808.16;5080716;28;20582;-80
2021/10/28 01:55:40;;;;;;;9.40;6.10;;;;;;;9.23;79.82;100808.34;5068739;28;20495;-81
2021/10/28 01:58:07;;;;;;;6.00;5.43;;;;;;;9.27;80.08;100807.16;5072657;28;20968;-82
2021/10/28 02:00:35;;;;;;;9.87;6.67;;;;;;;9.31;79.50;100803.28;5069638;28;20504;-80
2021/10/28 02:03:02;;;;;;;12.43;6.47;;;;;;;9.26;79.71;100805.44;5085173;28;20440;-79
2021/10/28 02:05:29;;;;;;;9.03;6.80;;;;;;;9.27;81.26;100798.28;5074001;28;20499;-80
2021/10/28 02:07:56;;;;;;;9.30;7.63;;;;;;;9.27;81.42;100796.50;5075123;28;20456;-80
2021/10/28 02:10:22;;;;;;;11.30;7.30;;;;;;;9.36;81.68;100805.59;5078709;28;20480;-79
2021/10/28 02:12:50;;;;;;;9.30;7.43;;;;;;;9.41;81.89;100809.59;5068615;28;20476;-80
2021/10/28 02:15:19;;;;;;;10.93;7.40;;;;;;;9.36;81.57;100800.25;5067304;28;20478;-82
2021/10/28 02:17:46;;;;;;;8.63;6.80;;;;;;;9.32;81.76;100809.47;5084070;28;20542;-78
2021/10/28 02:20:15;;;;;;;9.10;6.20;;;;;;;9.38;81.64;100803.66;5076079;28;20476;-81
2021/10/28 02:22:42;;;;;;;10.30;7.33;;;;;;;9.37;81.56;100807.28;5075870;28;20984;-81
2021/10/28 02:25:09;;;;;;;10.20;7.80;;;;;;;9.38;81.92;100790.31;5082253;28;20450;-78
2021/10/28 02:27:37;;;;;;;14.00;9.83;;;;;;;9.29;82.50;100793.69;5077660;28;20471;-80
2021/10/28 02:30:06;;;;;;;10.77;8.70;;;;;;;9.37;81.94;100797.47;5084517;28;20486;-81
2021/10/28 02:32:33;;;;;;;10.60;8.30;;;;;;;9.32;82.27;100791.66;5080217;28;20448;-81
2021/10/28 02:35:00;;;;;;;13.60;9.50;;;;;;;9.33;82.46;100782.66;5064052;28;21131;-80
2021/10/28 02:37:28;;;;;;;13.23;8.10;;;;;;;9.31;82.44;100795.28;5080587;28;20938;-83
2021/10/28 02:39:54;;;;;;;15.00;8.50;;;;;;;9.29;82.19;100788.34;5076404;28;20688;-79
2021/10/28 02:42:21;;;;;;;10.20;8.17;;;;;;;9.23;81.95;100790.53;5067830;28;20563;-82
2021/10/28 02:44:48;;;;;;;13.10;10.00;;;;;;;9.25;82.21;100787.72;5070323;28;20516;-81
2021/10/28 02:47:16;;;;;;;12.23;9.80;;;;;;;9.17;82.33;100775.00;5074001;28;20519;-82
2021/10/28 02:49:44;;;;;;;13.60;9.97;;;;;;;9.15;82.74;100776.94;5076482;28;20463;-83
2021/10/28 02:52:11;;;;;;;11.93;9.63;;;;;;;8.95;82.65;100773.13;5075621;28;20512;-82
2021/10/28 02:54:38;;;;;;;13.57;8.90;;;;;;;9.12;82.00;100765.66;5065120;28;20489;-81
2021/10/28 02:57:06;;;;;;;17.93;10.37;;;;;;;9.11;82.08;100763.94;5074752;28;20475;-83
2021/10/28 02:59:32;;;;;;;11.07;9.10;;;;;;;9.00;82.50;100757.63;5084243;28;20521;-80
2021/10/28 03:01:59;;;;;;;13.80;10.30;;;;;;;8.98;82.27;100754.22;5081291;28;20475;-83
2021/10/28 03:04:27;;;;;;;16.37;12.37;;;;;;;8.90;82.46;100761.97;5084584;28;20512;-85
2021/10/28 03:06:54;;;;;;;11.77;10.10;;;;;;;8.99;82.15;100761.28;5068060;28;20481;-85
2021/10/28 03:09:23;;;;;;;19.73;12.00;;;;;;;8.92;82.44;100759.19;5072333;28;20456;-85
2021/10/28 03:11:51;;;;;;;16.57;11.87;;;;;;;8.90;82.59;100761.13;5032297;28;20545;-80
2021/10/28 03:14:22;;;;;;;20.23;11.87;;;;;;;8.90;83.36;100756.63;5028317;28;20490;-81
2021/10/28 03:16:54;;;;;;;16.67;12.50;;;;;;;8.92;83.01;100761.84;5038797;28;20512;-83
2021/10/28 03:19:36;;;;;;;15.73;11.90;;;;;;;9.03;82.85;100757.38;5043443;28;20858;-79
2021/10/28 03:27:33;;;;;;;17.50;13.40;;;;;;;8.95;82.43;100750.94;5029255;28;20517;-82
2021/10/28 03:30:00;;;;;;;18.00;12.50;;;;;;;8.91;82.09;100753.00;5024027;28;20458;-85
2021/10/28 03:32:28;;;;;;;17.10;13.20;;;;;;;8.82;82.17;100748.38;5023074;28;20610;-83
2021/10/28 03:34:55;;;;;;;18.40;13.20;;;;;;;8.65;82.54;100739.84;5023649;28;20474;-84
2021/10/28 03:37:26;;;;;;;18.13;13.13;;;;;;;8.75;82.19;100739.13;5022002;28;21081;-85
2021/10/28 03:45:48;;;;;;;17.30;13.80;;;;;;;8.42;83.09;100743.34;5017366;28;20470;-83
2021/10/28 03:48:35;;;;;;;16.70;13.13;;;;;;;8.44;83.12;100730.81;5022762;28;20489;-83
2021/10/28 03:59:38;;;;;;;19.03;14.67;;;;;;;8.16;83.65;100735.50;5022907;28;20457;-81
2021/10/28 04:19:17;;;;;;;21.23;15.73;;;;;;;7.99;83.70;100719.91;5080182;28;20494;-84
2021/10/28 04:29:54;;;;;;;22.67;16.07;;;;;;;7.95;83.47;100716.63;5081925;28;20508;-80
2021/10/28 04:32:20;;;;;;;21.83;16.23;;;;;;;7.94;83.61;100716.72;5078824;28;20507;-82
2021/10/28 04:34:47;;;;;;;26.53;16.23;;;;;;;7.94;83.58;100708.75;5074686;28;20482;-83
2021/10/28 04:37:14;;;;;;;26.27;17.63;;;;;;;8.03;83.55;100713.38;5097337;28;20471;-83
2021/10/28 04:39:40;;;;;;;22.67;17.50;;;;;;;8.13;83.00;100708.22;5081530;28;20468;-77
2021/10/28 04:42:07;;;;;;;22.80;17.20;;;;;;;8.06;83.36;100705.16;5079329;28;20499;-79
2021/10/28 04:44:37;;;;;;;22.03;15.43;;;;;;;8.10;83.03;100701.31;5065408;28;20436;-76
2021/10/28 04:47:04;;;;;;;18.57;15.00;;;;;;;8.06;82.29;100697.19;5079138;28;20541;-77
2021/10/28 04:49:30;;;;;;;21.90;14.90;;;;;;;7.99;82.46;100695.94;5082110;28;20455;-79
2021/10/28 04:51:57;;;;;;;23.40;18.07;;;;;;;7.84;83.00;100705.88;5094094;28;20911;-79
2021/10/28 04:54:24;;;;;;;24.90;17.20;;;;;;;7.63;84.44;100692.31;5080143;28;21055;-78
2021/10/28 04:56:50;;;;;;;20.23;16.33;;;;;;;7.63;84.33;100695.81;5065362;28;20735;-77
2021/10/28 04:59:17;;;;;;;27.20;17.77;;;;;;;7.60;84.46;100693.38;5061493;28;20532;-79
2021/10/28 05:01:45;;;;;;;26.77;17.80;;;;;;;7.68;84.14;100695.50;5060362;28;20475;-78
2021/10/28 05:04:12;;;;;;;27.40;18.97;;;;;;;7.71;83.76;100690.81;5060805;28;20440;-78
2021/10/28 05:06:39;;;;;;;22.83;18.30;;;;;;;7.83;83.51;100690.84;5068220;28;20479;-79
2021/10/28 05:09:06;;;;;;;30.27;21.30;;;;;;;7.81;83.09;100693.66;5079102;28;20484;-81
2021/10/28 05:11:32;;;;;;;25.40;18.60;;;;;;;7.81;83.00;100691.00;5062396;28;20473;-80
2021/10/28 05:13:59;;;;;;;26.57;17.53;;;;;;;7.77;82.85;100686.84;5060672;28;20477;-82
2021/10/28 05:16:25;;;;;;;28.43;20.27;;;;;;;7.78;82.22;100696.53;5075531;28;20490;-84
2021/10/28 05:18:53;;;;;;;25.30;18.13;;;;;;;7.83;81.85;100693.53;5059984;28;20453;-84
2021/10/28 05:21:20;;;;;;;23.20;16.93;;;;;;;7.86;81.79;100691.53;5060440;28;20511;-84
2021/10/28 05:23:47;;;;;;;24.83;18.63;;;;;;;7.73;81.13;100688.03;5069145;28;20827;-84
2021/10/28 05:26:14;;;;;;;26.73;18.33;;;;;;;7.56;82.69;100683.94;5080237;28;20486;-83
2021/10/28 05:28:40;;;;;;;35.90;21.40;;;;;;;7.45;83.56;100682.03;5076575;28;20487;-84
2021/10/28 05:31:07;;;;;;;28.50;21.03;;;;;;;7.41;83.56;100691.19;5078335;28;20506;-84
2021/10/28 05:33:34;;;;;;;30.60;21.33;;;;;;;7.46;83.40;100681.06;5081112;28;20428;-84
2021/10/28 05:36:02;;;;;;;34.17;21.97;;;;;;;7.37;83.60;100680.91;5075604;28;20519;-82
2021/10/28 05:38:28;;;;;;;34.23;22.17;;;;;;;7.38;83.72;100683.44;5076403;28;20895;-84
2021/10/28 05:40:55;;;;;;;32.63;23.57;;;;;;;7.52;83.43;100687.78;5081351;28;20491;-81
2021/10/28 05:43:21;;;;;;;31.70;23.73;;;;;;;7.59;82.99;100688.19;5072537;28;20825;-83
2021/10/28 05:45:49;;;;;;;30.83;21.97;;;;;;;7.58;82.57;100689.16;5086288;28;21059;-80
2021/10/28 05:48:16;;;;;;;28.27;21.10;;;;;;;7.58;82.55;100683.81;5086040;28;20451;-82
2021/10/28 05:50:45;;;;;;;31.13;22.77;;;;;;;7.62;82.14;100687.94;5085452;28;20463;-84
2021/10/28 05:53:14;;;;;;;35.90;25.53;;;;;;;7.61;82.20;100686.28;5086217;28;20467;-80
2021/10/28 05:55:40;;;;;;;40.07;26.70;;;;;;;7.52;82.73;100685.13;5084718;28;20475;-82
2021/10/28 05:58:07;;;;;;;46.77;28.00;;;;;;;7.61;82.78;100688.94;5085744;28;20487;-82
2021/10/28 06:00:34;;;;;;;45.40;28.80;;;;;;;7.53;82.98;100687.69;5087067;28;20467;-84
2021/10/28 06:03:01;;;;;;;41.77;28.73;;;;;;;7.63;83.01;100689.66;5086311;28;20427;-83
2021/10/28 06:05:27;;;;;;;37.80;28.23;;;;;;;7.68;82.84;100682.19;5086546;28;20985;-80
2021/10/28 06:07:54;;;;;;;41.40;26.03;;;;;;;7.74;82.72;100687.06;5085855;28;20482;-81
2021/10/28 06:10:22;;;;;;;38.43;27.77;;;;;;;7.67;82.58;100677.81;5084407;28;20480;-83
2021/10/28 06:12:51;;;;;;;46.80;30.43;;;;;;;7.61;82.80;100679.13;5065093;28;20429;-82
2021/10/28 06:15:19;;;;;;;42.53;28.90;;;;;;;7.67;83.13;100685.81;5064971;28;20524;-85
2021/10/28 06:17:50;;;;;;;40.43;28.97;;;;;;;7.40;83.57;100681.53;5065286;28;20530;-84
2021/10/28 06:20:20;;;;;;;39.60;26.37;;;;;;;7.41;83.77;100677.88;5078823;28;20451;-81
2021/10/28 06:22:47;;;;;;;43.13;29.30;;;;;;;7.43;83.45;100673.34;5086147;28;20550;-84
2021/10/28 06:25:14;;;;;;;41.30;28.93;;;;;;;7.50;83.91;100677.25;5085803;28;20443;-81
2021/10/28 06:27:42;;;;;;;40.77;27.73;;;;;;;7.58;83.70;100674.03;5087336;28;20491;-84
2021/10/28 06:30:09;;;;;;;51.43;29.63;;;;;;;7.59;83.87;100672.22;5087337;28;20444;-82
2021/10/28 06:32:42;;;;;;;48.30;33.23;;;;;;;7.71;83.58;100676.66;5085874;28;20930;-84
2021/10/28 06:35:09;;;;;;;41.33;29.67;;;;;;;7.83;83.04;100670.44;5087127;28;20472;-81
2021/10/28 06:37:36;;;;;;;44.93;31.00;;;;;;;7.89;83.31;100669.13;5086033;28;20475;-82
2021/10/28 06:40:03;;;;;;;52.67;30.63;;;;;;;7.90;83.56;100661.03;5087243;28;20428;-84
2021/10/28 06:42:29;;;;;;;47.07;32.10;;;;;;;8.15;83.36;100677.00;5078541;28;20476;-84
2021/10/28 06:44:57;;;;;;;45.20;30.57;;;;;;;8.24;83.33;100682.47;5085716;28;20467;-82
2021/10/28 06:47:24;;;;;;;44.37;29.90;;;;;;;8.41;82.73;100675.88;5084367;28;20518;-84
2021/10/28 06:49:51;;;;;;;49.80;30.43;;;;;;;8.38;82.96;100677.94;5085366;28;20484;-85
2021/10/28 06:52:17;;;;;;;49.87;31.50;;;;;;;8.36;82.72;100674.53;5083956;28;20480;-83
2021/10/28 06:54:46;;;;;;;52.03;31.77;;;;;;;8.43;82.65;100678.47;5083215;28;20526;-85
2021/10/28 07:02:48;;;;;;;52.20;34.10;;;;;;;8.74;83.42;100668.13;5084386;28;20461;-81
2021/10/28 07:05:15;;;;;;;52.20;31.37;;;;;;;8.91;83.27;100662.34;5083536;28;20515;-84
2021/10/28 07:07:42;;;;;;;47.60;29.87;;;;;;;9.03;82.63;100665.88;5082919;28;20491;-84
2021/10/28 07:10:12;;;;;;;47.90;32.30;;;;;;;9.13;82.54;100660.63;5082573;28;20479;-83
2021/10/28 07:12:48;;;;;;;49.30;31.23;;;;;;;9.15;82.53;100664.03;5083506;28;20432;-83
2021/10/28 07:15:20;;;;;;;52.57;31.60;;;;;;;9.33;82.34;100661.75;5083635;28;20488;-85
2021/10/28 07:18:04;;;;;;;48.90;29.03;;;;;;;9.37;82.36;100653.38;5082807;28;20550;-84
2021/10/28 07:20:51;;;;;;;51.67;31.07;;;;;;;9.67;81.27;100659.88;5084490;28;20517;-82
2021/10/28 07:31:46;;;;;;;31.80;25.23;;;;;;;13.78;66.10;100665.13;5102686;28;21044;-80
2021/10/28 07:34:22;;;;;;;24.40;19.13;;;;;;;13.30;66.63;100669.75;5101420;28;20427;-81
2021/10/28 07:39:47;;;;;;;22.00;17.07;;;;;;;14.06;62.91;100655.22;5082078;28;20439;-84
2021/10/28 07:58:48;;;;;;;18.10;15.20;;;;;;;18.01;50.49;100650.50;5061190;28;20472;-83
2021/10/28 08:15:13;;;;;;;16.30;14.60;;;;;;;17.41;53.04;100625.81;5083983;28;20475;-79
2021/10/28 08:20:54;;;;;;;17.53;15.33;;;;;;;19.23;47.72;100622.47;5081565;28;20824;-85
2021/10/28 08:23:31;;;;;;;16.93;15.13;;;;;;;18.74;48.93;100621.13;5080744;28;20448;-84
2021/10/28 08:28:45;;;;;;;15.23;13.70;;;;;;;18.49;49.28;100615.94;5081070;28;20478;-82
2021/10/28 08:31:12;;;;;;;17.70;15.90;;;;;;;19.00;48.24;100623.41;5080929;28;20475;-84
2021/10/28 08:33:39;;;;;;;17.20;15.27;;;;;;;19.30;48.49;100607.13;5068949;28;20445;-82
2021/10/28 08:36:09;;;;;;;16.23;14.07;;;;;;;18.74;49.37;100613.00;5061012;28;20496;-85
2021/10/28 08:38:36;;;;;;;16.27;14.47;;;;;;;19.18;48.75;100618.44;5059449;28;20526;-83
2021/10/28 08:41:04;;;;;;;15.23;13.30;;;;;;;19.93;46.44;100618.31;5060530;28;20468;-84
2021/10/28 08:43:35;;;;;;;15.13;13.50;;;;;;;20.23;46.14;100623.63;5061577;28;20430;-84
2021/10/28 08:46:01;;;;;;;14.73;13.23;;;;;;;20.26;45.59;100629.50;5059835;28;20781;-84
2021/10/28 08:48:31;;;;;;;15.80;14.17;;;;;;;20.30;45.13;100624.50;5060716;28;20456;-82
2021/10/28 08:51:05;;;;;;;15.60;13.00;;;;;;;21.80;43.14;100616.81;5060635;28;20498;-84
2021/10/28 08:53:49;;;;;;;15.50;14.00;;;;;;;21.44;43.11;100618.78;5059067;28;20468;-84
2021/10/28 08:56:26;;;;;;;15.87;13.13;;;;;;;20.91;43.59;100629.38;5060849;28;20480;-81
2021/10/28 08:59:24;;;;;;;14.67;13.23;;;;;;;20.97;44.35;100614.16;5061295;28;20437;-85
2021/10/28 09:24:33;;;;;;;13.73;10.40;;;;;;;24.83;36.85;100592.66;5038482;28;20996;-85
2021/10/28 09:27:07;;;;;;;12.30;11.10;;;;;;;23.56;38.22;100581.84;5037791;28;21045;-83
2021/10/28 09:29:39;;;;;;;11.80;10.60;;;;;;;23.05;39.76;100584.34;5037357;28;20549;-85
2021/10/28 09:32:14;;;;;;;11.40;10.20;;;;;;;22.78;40.60;100585.47;5037262;28;20509;-81
2021/10/28 09:46:11;;;;;;;12.90;10.17;;;;;;;20.10;46.51;100565.47;4959138;28;20492;-86
2021/10/28 09:49:50;;;;;;;11.53;10.40;;;;;;;20.21;47.49;100566.78;5018949;28;20459;-83
2021/10/28 09:51:44;;;;;;;10.93;9.83;;;;;;;20.78;45.50;100559.50;5015885;28;20470;-80
2021/10/28 09:54:20;;;;;;;10.60;9.50;;;;;;;22.25;42.57;100553.63;5016872;28;20465;-85
2021/10/28 09:59:35;;;;;;;9.27;8.37;;;;;;;22.09;42.29;100550.28;5035357;28;20930;-86
2021/10/28 10:02:10;;;;;;;11.57;8.80;;;;;;;21.80;42.81;100557.81;5036617;28;20477;-85
2021/10/28 10:04:40;;;;;;;9.80;8.70;;;;;;;22.36;42.24;100558.50;5036576;28;20536;-86
2021/10/28 10:07:07;;;;;;;9.63;7.50;;;;;;;21.96;41.06;100550.25;5052930;28;20480;-84
2021/10/28 10:09:35;;;;;;;6.97;6.27;;;;;;;20.62;43.10;100552.50;5055534;28;20459;-87
2021/10/28 10:12:03;;;;;;;7.97;6.40;;;;;;;22.37;41.62;100550.09;5040346;28;20480;-86
2021/10/28 10:14:30;;;;;;;8.73;6.83;;;;;;;21.78;42.75;100551.72;5040650;28;20452;-84
2021/10/28 10:16:58;;;;;;;6.97;5.90;;;;;;;20.99;43.90;100547.69;5051779;28;20798;-86
2021/10/28 10:19:33;;;;;;;8.30;6.20;;;;;;;20.88;45.41;100546.38;5064253;28;20480;-86
2021/10/28 10:22:06;;;;;;;6.80;6.10;;;;;;;20.92;44.11;100535.09;5063965;28;20479;-86
2021/10/28 10:24:50;;;;;;;7.83;5.60;;;;;;;20.54;46.11;100530.91;5065408;28;20465;-85
2021/10/28 11:06:10;;;;;;;2.20;2.00;;;;;;;21.30;38.69;100485.66;5103845;28;20553;-84
2021/10/28 11:23:42;;;;;;;2.67;2.13;;;;;;;20.25;39.41;100480.34;5100395;28;20489;-86
2021/10/28 11:26:36;;;;;;;4.80;1.77;;;;;;;20.12;39.92;100479.22;5068983;28;20546;-80
2021/10/28 11:29:21;;;;;;;3.23;1.97;;;;;;;20.22;39.65;100473.44;5102320;28;20459;-84
2021/10/28 12:25:03;;;;;;;2.97;1.73;;;;;;;18.40;42.51;100404.03;5078012;28;20447;-86
2021/10/28 12:44:54;;;;;;;2.73;1.50;;;;;;;18.43;43.63;100379.25;5036838;28;20451;-87
2021/10/28 12:56:12;;;;;;;4.03;1.33;;;;;;;18.48;43.80;100351.63;4941381;29;20493;-84
2021/10/28 13:48:25;;;;;;;1.87;1.00;;;;;;;18.20;43.15;100287.38;5007776;28;20452;-88
2021/10/28 13:54:01;;;;;;;2.27;1.73;;;;;;;18.65;42.73;100279.13;5002309;28;20482;-86
2021/10/28 13:59:46;;;;;;;1.43;1.00;;;;;;;18.14;42.10;100285.44;4942868;29;20857;-89
2021/10/28 14:16:43;;;;;;;1.90;1.30;;;;;;;18.02;42.89;100268.84;4943742;29;20497;-88
2021/10/28 15:03:18;;;;;;;3.10;1.80;;;;;;;16.71;49.19;100216.13;5041849;28;20456;-87
2021/10/28 15:30:53;;;;;;;4.50;1.93;;;;;;;15.87;51.87;100183.66;5071085;28;20496;-84
2021/10/28 15:36:22;;;;;;;3.53;2.27;;;;;;;15.80;52.59;100187.06;5061750;28;20560;-87
2021/10/28 15:39:01;;;;;;;3.43;2.43;;;;;;;15.61;53.33;100182.91;5062586;28;21044;-87
2021/10/28 16:22:56;;;;;;;3.40;1.87;;;;;;;14.19;56.07;100167.28;5039173;28;20482;-86
2021/10/28 16:25:23;;;;;;;3.30;2.43;;;;;;;14.01;56.48;100156.66;5027883;28;20449;-85
2021/10/28 16:27:50;;;;;;;4.00;2.20;;;;;;;14.07;55.99;100156.84;5042346;28;20485;-83
2021/10/28 16:30:17;;;;;;;2.17;1.97;;;;;;;13.99;57.07;100161.34;5038331;28;20639;-85
2021/10/28 16:32:44;;;;;;;2.50;2.30;;;;;;;13.81;56.95;100174.94;5033735;28;20589;-82
2021/10/28 16:35:14;;;;;;;4.93;2.87;;;;;;;13.83;56.89;100165.69;5019260;28;20727;-86
2021/10/28 16:37:41;;;;;;;5.60;2.77;;;;;;;13.76;57.75;100167.34;5030266;28;20482;-85
2021/10/28 16:40:09;;;;;;;3.03;2.30;;;;;;;13.81;57.47;100166.88;5027388;28;20571;-84
2021/10/28 16:42:35;;;;;;;3.80;3.23;;;;;;;13.77;57.32;100169.03;5036544;28;20484;-85
2021/10/28 16:45:04;;;;;;;4.60;2.73;;;;;;;13.67;57.31;100173.69;5058167;28;20460;-82
2021/10/28 16:47:31;;;;;;;4.37;2.73;;;;;;;13.72;57.79;100174.06;5067730;28;20468;-85
2021/10/28 16:49:57;;;;;;;3.33;2.93;;;;;;;13.72;57.67;100176.75;5074371;28;20456;-86
2021/10/28 16:52:25;;;;;;;42.83;25.50;;;;;;;13.58;58.26;100180.88;5076812;28;20495;-86
2021/10/28 16:54:52;;;;;;;29.70;16.17;;;;;;;13.45;59.02;100172.44;5072048;28;20525;-86
2021/10/28 16:57:19;;;;;;;6.73;4.30;;;;;;;13.41;58.43;100179.97;5075653;28;20991;-85
2021/10/28 16:59:45;;;;;;;3.87;3.57;;;;;;;13.46;58.27;100169.59;5061488;28;20510;-87
2021/10/28 17:02:12;;;;;;;4.30;3.30;;;;;;;13.35;58.44;100175.25;5071391;28;20496;-86
2021/10/28 17:04:39;;;;;;;4.27;3.87;;;;;;;13.36;58.81;100168.88;5075433;28;20439;-84
2021/10/28 17:07:06;;;;;;;8.90;4.43;;;;;;;13.27;58.82;100170.66;5077856;28;20533;-81
2021/10/28 17:09:34;;;;;;;4.30;3.90;;;;;;;13.29;58.73;100162.44;5069346;28;20460;-83
2021/10/28 17:12:01;;;;;;;7.07;3.70;;;;;;;13.29;58.97;100167.81;5080354;28;20800;-82
2021/10/28 17:14:27;;;;;;;4.13;3.73;;;;;;;13.29;58.74;100174.00;5080254;28;20447;-84
2021/10/28 17:16:54;;;;;;;6.33;4.43;;;;;;;13.17;58.87;100168.06;5063394;28;20531;-85
2021/10/28 17:19:21;;;;;;;4.50;3.97;;;;;;;13.10;59.14;100171.56;5063421;28;20972;-76
2021/10/28 17:21:49;;;;;;;5.57;4.93;;;;;;;13.06;59.14;100165.66;5080330;28;20460;-79
2021/10/28 17:24:27;;;;;;;6.47;4.27;;;;;;;13.08;59.13;100162.81;5074654;28;20471;-76
2021/10/28 17:26:55;;;;;;;5.23;4.73;;;;;;;13.04;59.19;100167.66;5071081;28;20479;-79
2021/10/28 17:29:21;;;;;;;5.10;4.60;;;;;;;13.08;59.10;100174.41;5068813;28;20460;-75
2021/10/28 17:31:50;;;;;;;6.00;5.40;;;;;;;13.00;59.42;100167.16;5075566;28;20514;-81
2021/10/28 17:34:17;;;;;;;7.13;6.00;;;;;;;12.85;59.70;100170.56;5080109;28;20463;-82
2021/10/28 17:36:48;;;;;;;4.83;4.33;;;;;;;12.89;60.38;100171.94;5061672;28;20485;-82
2021/10/28 17:39:15;;;;;;;9.83;5.57;;;;;;;12.70;61.03;100171.13;5059151;28;20464;-83
2021/10/28 17:41:42;;;;;;;6.40;4.90;;;;;;;12.77;60.87;100174.84;5061369;28;20476;-81
2021/10/28 17:44:10;;;;;;;6.93;5.70;;;;;;;12.71;61.13;100172.81;5079475;28;20459;-82
2021/10/28 17:46:36;;;;;;;8.20;5.93;;;;;;;12.48;61.81;100174.31;5077829;28;20753;-80
2021/10/28 17:49:03;;;;;;;6.43;5.73;;;;;;;12.40;62.25;100172.41;5080202;28;20487;-81
2021/10/28 17:51:30;;;;;;;8.07;5.83;;;;;;;12.41;61.99;100169.56;5079992;28;20475;-77
2021/10/28 17:53:57;;;;;;;7.10;6.40;;;;;;;12.28;62.21;100171.78;5079132;28;20493;-75
2021/10/28 17:56:24;;;;;;;7.10;6.17;;;;;;;12.28;62.10;100171.78;5076141;28;20475;-77
2021/10/28 17:58:51;;;;;;;14.83;13.43;;;;;;;12.29;62.85;100170.81;5076306;28;20470;-80
2021/10/28 18:01:22;;;;;;;8.80;5.83;;;;;;;12.25;62.75;100169.41;5064192;28;20489;-80
2021/10/28 18:03:49;;;;;;;11.10;6.93;;;;;;;12.12;62.98;100163.63;5071270;28;20467;-78
2021/10/28 18:06:16;;;;;;;10.73;7.07;;;;;;;12.12;63.07;100160.94;5068256;28;20464;-79
2021/10/28 18:08:42;;;;;;;9.30;7.27;;;;;;;11.99;63.69;100162.13;5066979;28;20466;-80
2021/10/28 18:11:09;;;;;;;8.97;7.10;;;;;;;12.05;63.11;100152.66;5068980;28;20507;-79
2021/10/28 18:13:36;;;;;;;9.23;6.60;;;;;;;12.16;63.05;100154.25;5072514;28;20440;-75
2021/10/28 18:16:04;;;;;;;8.43;7.43;;;;;;;12.06;62.73;100159.69;5064679;28;20473;-80
2021/10/28 18:18:32;;;;;;;8.10;7.40;;;;;;;12.21;62.21;100171.56;5060014;28;20471;-76
2021/10/28 18:20:59;;;;;;;7.27;6.33;;;;;;;12.04;62.98;100162.50;5059707;28;20475;-80
2021/10/28 18:23:26;;;;;;;11.50;7.83;;;;;;;11.98;62.93;100164.97;5073159;28;20453;-79
2021/10/28 18:25:53;;;;;;;12.10;7.57;;;;;;;11.86;63.37;100170.50;5079285;28;20495;-79
2021/10/28 18:28:19;;;;;;;10.37;8.33;;;;;;;11.96;63.19;100162.44;5078468;28;20482;-74
2021/10/28 18:30:47;;;;;;;9.80;8.20;;;;;;;11.83;63.57;100164.63;5076382;28;21042;-78
2021/10/28 18:33:13;;;;;;;10.67;9.43;;;;;;;11.75;63.29;100154.66;5076960;28;20453;-80
2021/10/28 18:35:42;;;;;;;13.13;8.83;;;;;;;11.91;63.32;100163.88;5073423;28;20478;-79
2021/10/28 18:38:11;;;;;;;8.37;7.50;;;;;;;11.79;63.48;100163.25;5071962;28;20496;-79
2021/10/28 18:40:38;;;;;;;9.90;8.10;;;;;;;11.73;63.80;100158.47;5078212;28;20627;-79
2021/10/28 18:43:05;;;;;;;9.77;8.40;;;;;;;11.61;63.91;100155.16;5073268;28;20504;-78
2021/10/28 18:45:32;;;;;;;14.23;9.47;;;;;;;11.56;63.83;100152.06;5079449;28;20494;-80
2021/10/28 18:47:59;;;;;;;9.33;8.13;;;;;;;11.59;63.85;100154.47;5076319;28;20464;-81
2021/10/28 18:50:26;;;;;;;13.80;9.37;;;;;;;11.50;63.63;100140.13;5069488;28;20448;-79
2021/10/28 18:52:54;;;;;;;12.80;9.07;;;;;;;11.36;64.41;100146.00;5070522;28;20436;-80
2021/10/28 18:55:21;;;;;;;11.20;10.00;;;;;;;11.42;63.73;100150.75;5071298;28;20456;-81
2021/10/28 18:57:47;;;;;;;14.90;10.10;;;;;;;11.53;63.66;100155.91;5074699;28;20475;-82
2021/10/28 19:00:15;;;;;;;11.80;10.03;;;;;;;11.41;63.73;100149.06;5066844;28;20452;-84
2021/10/28 19:02:41;;;;;;;11.73;10.43;;;;;;;11.25;63.97;100158.56;5074339;28;20511;-82
2021/10/28 19:05:09;;;;;;;12.90;9.90;;;;;;;11.35;63.82;100155.84;5073352;28;20441;-81
2021/10/28 19:07:35;;;;;;;12.93;10.97;;;;;;;11.23;64.04;100157.03;5062879;28;20513;-82
2021/10/28 19:10:04;;;;;;;12.63;10.00;;;;;;;11.28;63.76;100157.41;5078168;28;20529;-80
2021/10/28 19:12:31;;;;;;;15.97;11.90;;;;;;;11.08;64.44;100159.34;5064527;28;20461;-81